sensor_id;sensor_type;location;lat;lon;timestamp;P1;durP1;ratioP1;P2;durP2;ratioP2
42146;SDS011;27815;43.410;11.852;2023-12-20T00:00:48;19.20;;;11.93;;
42146;SDS011;27815;43.410;11.852;2023-12-20T00:04:51;19.52;;;11.43;;
42146;SDS011;27815;43.410;11.852;2023-12-20T00:08:54;17.13;;;11.55;;
42146;SDS011;27815;43.410;11.852;2023-12-20T00:12:56;28.40;;;17.63;;
42146;SDS011;27815;43.410;11.852;2023-12-20T00:16:59;26.90;;;16.00;;
42146;SDS011;27815;43.410;11.852;2023-12-20T00:21:03;24.67;;;14.60;;
42146;SDS011;27815;43.410;11.852;2023-12-20T00:25:06;23.17;;;14.15;;
42146;SDS011;27815;43.410;11.852;2023-12-20T00:29:10;20.33;;;12.82;;
42146;SDS011;27815;43.410;11.852;2023-12-20T00:33:13;25.83;;;15.60;;
42146;SDS011;27815;43.410;11.852;2023-12-20T00:37:16;25.95;;;16.63;;
42146;SDS011;27815;43.410;11.852;2023-12-20T00:41:19;29.83;;;18.00;;
42146;SDS011;27815;43.410;11.852;2023-12-20T00:45:22;16.17;;;10.27;;
42146;SDS011;27815;43.410;11.852;2023-12-20T00:49:25;16.63;;;11.38;;
42146;SDS011;27815;43.410;11.852;2023-12-20T00:53:28;22.48;;;12.70;;
42146;SDS011;27815;43.410;11.852;2023-12-20T00:57:31;26.42;;;14.77;;
42146;SDS011;27815;43.410;11.852;2023-12-20T01:01:33;24.63;;;16.13;;
42146;SDS011;27815;43.410;11.852;2023-12-20T01:05:36;30.02;;;17.35;;
42146;SDS011;27815;43.410;11.852;2023-12-20T01:09:39;23.88;;;15.48;;
42146;SDS011;27815;43.410;11.852;2023-12-20T01:13:42;23.42;;;13.90;;
42146;SDS011;27815;43.410;11.852;2023-12-20T01:17:45;23.42;;;13.60;;
42146;SDS011;27815;43.410;11.852;2023-12-20T01:21:49;22.08;;;13.50;;
42146;SDS011;27815;43.410;11.852;2023-12-20T01:25:51;22.27;;;13.85;;
42146;SDS011;27815;43.410;11.852;2023-12-20T01:29:54;21.13;;;12.27;;
42146;SDS011;27815;43.410;11.852;2023-12-20T01:33:57;23.33;;;12.85;;
42146;SDS011;27815;43.410;11.852;2023-12-20T01:38:00;20.50;;;13.35;;
42146;SDS011;27815;43.410;11.852;2023-12-20T01:42:03;24.40;;;14.25;;
42146;SDS011;27815;43.410;11.852;2023-12-20T01:46:06;21.50;;;13.73;;
42146;SDS011;27815;43.410;11.852;2023-12-20T01:50:09;20.05;;;12.73;;
42146;SDS011;27815;43.410;11.852;2023-12-20T01:54:12;23.63;;;14.45;;
42146;SDS011;27815;43.410;11.852;2023-12-20T01:58:15;19.45;;;13.15;;
42146;SDS011;27815;43.410;11.852;2023-12-20T02:02:19;21.90;;;13.18;;
42146;SDS011;27815;43.410;11.852;2023-12-20T02:06:22;23.30;;;14.65;;
42146;SDS011;27815;43.410;11.852;2023-12-20T02:10:26;23.98;;;13.25;;
42146;SDS011;27815;43.410;11.852;2023-12-20T02:14:29;18.02;;;12.20;;
42146;SDS011;27815;43.410;11.852;2023-12-20T02:18:32;22.90;;;14.13;;
42146;SDS011;27815;43.410;11.852;2023-12-20T02:22:36;22.33;;;13.65;;
42146;SDS011;27815;43.410;11.852;2023-12-20T02:26:39;26.92;;;17.95;;
42146;SDS011;27815;43.410;11.852;2023-12-20T02:30:47;28.33;;;19.48;;
42146;SDS011;27815;43.410;11.852;2023-12-20T02:34:51;23.15;;;15.50;;
42146;SDS011;27815;43.410;11.852;2023-12-20T02:38:54;22.05;;;14.15;;
42146;SDS011;27815;43.410;11.852;2023-12-20T02:42:57;21.02;;;13.63;;
42146;SDS011;27815;43.410;11.852;2023-12-20T02:47:00;22.70;;;14.10;;
42146;SDS011;27815;43.410;11.852;2023-12-20T02:51:03;20.27;;;13.68;;
42146;SDS011;27815;43.410;11.852;2023-12-20T02:55:06;22.33;;;14.20;;
42146;SDS011;27815;43.410;11.852;2023-12-20T02:59:10;24.77;;;15.05;;
42146;SDS011;27815;43.410;11.852;2023-12-20T03:03:12;31.58;;;19.63;;
42146;SDS011;27815;43.410;11.852;2023-12-20T03:07:15;21.30;;;13.77;;
42146;SDS011;27815;43.410;11.852;2023-12-20T03:11:18;26.00;;;16.88;;
42146;SDS011;27815;43.410;11.852;2023-12-20T03:15:21;32.35;;;18.92;;
42146;SDS011;27815;43.410;11.852;2023-12-20T03:19:24;31.38;;;20.40;;
42146;SDS011;27815;43.410;11.852;2023-12-20T03:23:27;33.15;;;20.38;;
42146;SDS011;27815;43.410;11.852;2023-12-20T03:27:30;33.03;;;19.83;;
42146;SDS011;27815;43.410;11.852;2023-12-20T03:31:33;26.08;;;17.55;;
42146;SDS011;27815;43.410;11.852;2023-12-20T03:35:36;28.38;;;18.52;;
42146;SDS011;27815;43.410;11.852;2023-12-20T03:39:39;30.73;;;18.02;;
42146;SDS011;27815;43.410;11.852;2023-12-20T03:43:42;30.20;;;17.98;;
42146;SDS011;27815;43.410;11.852;2023-12-20T03:47:44;22.58;;;15.32;;
42146;SDS011;27815;43.410;11.852;2023-12-20T03:51:48;25.90;;;14.18;;
42146;SDS011;27815;43.410;11.852;2023-12-20T03:55:51;21.50;;;13.88;;
42146;SDS011;27815;43.410;11.852;2023-12-20T03:59:54;26.77;;;16.50;;
42146;SDS011;27815;43.410;11.852;2023-12-20T04:03:57;25.67;;;15.98;;
42146;SDS011;27815;43.410;11.852;2023-12-20T04:08:01;27.10;;;15.73;;
42146;SDS011;27815;43.410;11.852;2023-12-20T04:12:04;26.85;;;16.48;;
42146;SDS011;27815;43.410;11.852;2023-12-20T04:16:07;29.35;;;20.45;;
42146;SDS011;27815;43.410;11.852;2023-12-20T04:20:11;34.00;;;21.38;;
42146;SDS011;27815;43.410;11.852;2023-12-20T04:24:14;32.70;;;21.88;;
42146;SDS011;27815;43.410;11.852;2023-12-20T04:28:16;30.20;;;17.05;;
42146;SDS011;27815;43.410;11.852;2023-12-20T04:32:19;30.48;;;19.52;;
42146;SDS011;27815;43.410;11.852;2023-12-20T04:36:22;29.70;;;18.77;;
42146;SDS011;27815;43.410;11.852;2023-12-20T04:40:27;35.08;;;21.35;;
42146;SDS011;27815;43.410;11.852;2023-12-20T04:44:30;32.13;;;18.98;;
42146;SDS011;27815;43.410;11.852;2023-12-20T04:48:33;25.33;;;16.42;;
42146;SDS011;27815;43.410;11.852;2023-12-20T04:52:36;27.23;;;15.10;;
42146;SDS011;27815;43.410;11.852;2023-12-20T04:56:39;24.77;;;14.52;;
42146;SDS011;27815;43.410;11.852;2023-12-20T05:00:42;28.38;;;16.95;;
42146;SDS011;27815;43.410;11.852;2023-12-20T05:04:45;31.90;;;18.00;;
42146;SDS011;27815;43.410;11.852;2023-12-20T05:08:48;29.20;;;17.90;;
42146;SDS011;27815;43.410;11.852;2023-12-20T05:12:51;23.52;;;15.88;;
42146;SDS011;27815;43.410;11.852;2023-12-20T05:16:53;29.42;;;17.70;;
42146;SDS011;27815;43.410;11.852;2023-12-20T05:20:56;25.15;;;15.57;;
42146;SDS011;27815;43.410;11.852;2023-12-20T05:25:00;28.40;;;16.10;;
42146;SDS011;27815;43.410;11.852;2023-12-20T05:29:03;24.60;;;14.90;;
42146;SDS011;27815;43.410;11.852;2023-12-20T05:33:06;28.30;;;18.08;;
42146;SDS011;27815;43.410;11.852;2023-12-20T05:37:09;34.25;;;20.55;;
42146;SDS011;27815;43.410;11.852;2023-12-20T05:41:12;32.80;;;20.67;;
42146;SDS011;27815;43.410;11.852;2023-12-20T05:45:15;28.13;;;17.92;;
42146;SDS011;27815;43.410;11.852;2023-12-20T05:49:18;27.67;;;15.95;;
42146;SDS011;27815;43.410;11.852;2023-12-20T05:53:21;31.45;;;18.35;;
42146;SDS011;27815;43.410;11.852;2023-12-20T05:57:24;26.30;;;15.90;;
42146;SDS011;27815;43.410;11.852;2023-12-20T06:01:27;30.52;;;19.38;;
42146;SDS011;27815;43.410;11.852;2023-12-20T06:05:30;32.00;;;17.73;;
42146;SDS011;27815;43.410;11.852;2023-12-20T06:09:33;33.00;;;19.17;;
42146;SDS011;27815;43.410;11.852;2023-12-20T06:13:36;22.52;;;13.55;;
42146;SDS011;27815;43.410;11.852;2023-12-20T06:17:39;25.70;;;16.55;;
42146;SDS011;27815;43.410;11.852;2023-12-20T06:21:42;26.52;;;16.88;;
42146;SDS011;27815;43.410;11.852;2023-12-20T06:25:46;33.22;;;20.27;;
42146;SDS011;27815;43.410;11.852;2023-12-20T06:29:49;27.67;;;17.80;;
42146;SDS011;27815;43.410;11.852;2023-12-20T06:33:52;31.20;;;18.20;;
42146;SDS011;27815;43.410;11.852;2023-12-20T06:38:00;38.13;;;21.20;;
42146;SDS011;27815;43.410;11.852;2023-12-20T06:42:03;29.88;;;17.35;;
42146;SDS011;27815;43.410;11.852;2023-12-20T06:46:06;33.20;;;19.83;;
42146;SDS011;27815;43.410;11.852;2023-12-20T06:50:09;44.42;;;26.63;;
42146;SDS011;27815;43.410;11.852;2023-12-20T06:54:12;37.47;;;19.98;;
42146;SDS011;27815;43.410;11.852;2023-12-20T06:58:15;29.33;;;19.20;;
42146;SDS011;27815;43.410;11.852;2023-12-20T07:02:18;25.20;;;16.02;;
42146;SDS011;27815;43.410;11.852;2023-12-20T07:06:22;29.85;;;15.60;;
42146;SDS011;27815;43.410;11.852;2023-12-20T07:10:27;34.60;;;22.05;;
42146;SDS011;27815;43.410;11.852;2023-12-20T07:14:30;42.10;;;25.00;;
42146;SDS011;27815;43.410;11.852;2023-12-20T07:18:33;39.03;;;24.20;;
42146;SDS011;27815;43.410;11.852;2023-12-20T07:22:36;41.70;;;24.58;;
42146;SDS011;27815;43.410;11.852;2023-12-20T07:26:39;37.55;;;20.88;;
42146;SDS011;27815;43.410;11.852;2023-12-20T07:30:42;28.48;;;17.98;;
42146;SDS011;27815;43.410;11.852;2023-12-20T07:34:45;30.92;;;18.70;;
42146;SDS011;27815;43.410;11.852;2023-12-20T07:38:48;33.65;;;20.52;;
42146;SDS011;27815;43.410;11.852;2023-12-20T07:42:51;39.63;;;24.52;;
42146;SDS011;27815;43.410;11.852;2023-12-20T07:46:53;44.50;;;25.85;;
42146;SDS011;27815;43.410;11.852;2023-12-20T07:50:56;78.38;;;37.35;;
42146;SDS011;27815;43.410;11.852;2023-12-20T07:54:59;55.63;;;31.63;;
42146;SDS011;27815;43.410;11.852;2023-12-20T07:59:02;62.38;;;32.85;;
42146;SDS011;27815;43.410;11.852;2023-12-20T08:03:05;62.28;;;34.20;;
42146;SDS011;27815;43.410;11.852;2023-12-20T08:07:09;58.45;;;32.30;;
42146;SDS011;27815;43.410;11.852;2023-12-20T08:11:12;47.47;;;29.80;;
42146;SDS011;27815;43.410;11.852;2023-12-20T08:15:14;54.92;;;31.48;;
42146;SDS011;27815;43.410;11.852;2023-12-20T08:19:17;56.17;;;33.25;;
42146;SDS011;27815;43.410;11.852;2023-12-20T08:23:20;66.57;;;36.10;;
42146;SDS011;27815;43.410;11.852;2023-12-20T08:27:27;61.83;;;34.95;;
42146;SDS011;27815;43.410;11.852;2023-12-20T08:31:30;60.60;;;35.25;;
42146;SDS011;27815;43.410;11.852;2023-12-20T08:35:33;69.55;;;36.70;;
42146;SDS011;27815;43.410;11.852;2023-12-20T08:39:36;54.33;;;33.22;;
42146;SDS011;27815;43.410;11.852;2023-12-20T08:43:39;55.70;;;32.28;;
42146;SDS011;27815;43.410;11.852;2023-12-20T08:47:42;61.78;;;37.20;;
42146;SDS011;27815;43.410;11.852;2023-12-20T08:51:47;66.90;;;39.28;;
42146;SDS011;27815;43.410;11.852;2023-12-20T08:55:50;64.40;;;37.22;;
42146;SDS011;27815;43.410;11.852;2023-12-20T08:59:53;59.28;;;36.95;;
42146;SDS011;27815;43.410;11.852;2023-12-20T09:03:56;72.88;;;38.72;;
42146;SDS011;27815;43.410;11.852;2023-12-20T09:07:59;67.32;;;39.55;;
42146;SDS011;27815;43.410;11.852;2023-12-20T09:12:02;63.63;;;38.20;;
42146;SDS011;27815;43.410;11.852;2023-12-20T09:16:05;81.05;;;44.00;;
42146;SDS011;27815;43.410;11.852;2023-12-20T09:20:08;71.40;;;38.63;;
42146;SDS011;27815;43.410;11.852;2023-12-20T09:24:11;86.55;;;45.17;;
42146;SDS011;27815;43.410;11.852;2023-12-20T09:28:14;71.65;;;38.30;;
42146;SDS011;27815;43.410;11.852;2023-12-20T09:32:17;65.50;;;35.90;;
42146;SDS011;27815;43.410;11.852;2023-12-20T09:36:20;63.40;;;34.95;;
42146;SDS011;27815;43.410;11.852;2023-12-20T09:40:23;58.13;;;34.47;;
42146;SDS011;27815;43.410;11.852;2023-12-20T09:44:29;58.03;;;34.53;;
42146;SDS011;27815;43.410;11.852;2023-12-20T09:48:32;51.35;;;31.30;;
42146;SDS011;27815;43.410;11.852;2023-12-20T09:52:36;50.38;;;32.42;;
42146;SDS011;27815;43.410;11.852;2023-12-20T09:56:41;45.63;;;30.48;;
42146;SDS011;27815;43.410;11.852;2023-12-20T10:00:46;43.20;;;28.88;;
42146;SDS011;27815;43.410;11.852;2023-12-20T10:04:50;50.55;;;34.63;;
42146;SDS011;27815;43.410;11.852;2023-12-20T10:08:53;47.78;;;33.85;;
42146;SDS011;27815;43.410;11.852;2023-12-20T10:13:06;46.70;;;32.42;;
42146;SDS011;27815;43.410;11.852;2023-12-20T10:17:13;46.95;;;31.65;;
42146;SDS011;27815;43.410;11.852;2023-12-20T10:21:15;47.33;;;34.05;;
42146;SDS011;27815;43.410;11.852;2023-12-20T10:25:20;52.80;;;34.97;;
42146;SDS011;27815;43.410;11.852;2023-12-20T10:29:24;44.97;;;32.05;;
42146;SDS011;27815;43.410;11.852;2023-12-20T10:33:28;49.15;;;32.50;;
42146;SDS011;27815;43.410;11.852;2023-12-20T10:37:36;38.58;;;28.80;;
42146;SDS011;27815;43.410;11.852;2023-12-20T10:41:42;38.25;;;27.77;;
42146;SDS011;27815;43.410;11.852;2023-12-20T10:45:46;42.55;;;28.85;;
42146;SDS011;27815;43.410;11.852;2023-12-20T10:49:48;42.88;;;29.73;;
42146;SDS011;27815;43.410;11.852;2023-12-20T10:53:54;46.45;;;32.40;;
42146;SDS011;27815;43.410;11.852;2023-12-20T10:58:01;44.33;;;33.85;;
42146;SDS011;27815;43.410;11.852;2023-12-20T11:02:09;52.83;;;36.55;;
42146;SDS011;27815;43.410;11.852;2023-12-20T11:10:48;47.85;;;34.40;;
42146;SDS011;27815;43.410;11.852;2023-12-20T11:14:54;50.30;;;34.90;;
42146;SDS011;27815;43.410;11.852;2023-12-20T11:19:06;47.47;;;37.10;;
42146;SDS011;27815;43.410;11.852;2023-12-20T11:23:09;53.42;;;36.92;;
42146;SDS011;27815;43.410;11.852;2023-12-20T11:27:12;48.70;;;37.10;;
42146;SDS011;27815;43.410;11.852;2023-12-20T11:31:16;53.53;;;39.60;;
42146;SDS011;27815;43.410;11.852;2023-12-20T11:35:19;53.03;;;37.35;;
42146;SDS011;27815;43.410;11.852;2023-12-20T11:39:23;46.65;;;35.53;;
42146;SDS011;27815;43.410;11.852;2023-12-20T11:43:35;48.47;;;35.78;;
42146;SDS011;27815;43.410;11.852;2023-12-20T11:47:38;46.42;;;33.08;;
42146;SDS011;27815;43.410;11.852;2023-12-20T11:51:42;48.95;;;35.20;;
42146;SDS011;27815;43.410;11.852;2023-12-20T11:55:47;45.22;;;34.53;;
42146;SDS011;27815;43.410;11.852;2023-12-20T11:59:51;40.38;;;28.75;;
42146;SDS011;27815;43.410;11.852;2023-12-20T12:04:03;52.13;;;35.75;;
42146;SDS011;27815;43.410;11.852;2023-12-20T12:08:09;45.45;;;32.97;;
42146;SDS011;27815;43.410;11.852;2023-12-20T12:12:12;44.28;;;33.92;;
42146;SDS011;27815;43.410;11.852;2023-12-20T12:16:19;46.72;;;34.72;;
42146;SDS011;27815;43.410;11.852;2023-12-20T12:20:23;43.10;;;31.92;;
42146;SDS011;27815;43.410;11.852;2023-12-20T12:24:26;44.45;;;33.33;;
42146;SDS011;27815;43.410;11.852;2023-12-20T12:28:29;43.08;;;32.38;;
42146;SDS011;27815;43.410;11.852;2023-12-20T12:32:34;44.95;;;33.20;;
42146;SDS011;27815;43.410;11.852;2023-12-20T12:36:37;41.80;;;30.48;;
42146;SDS011;27815;43.410;11.852;2023-12-20T12:40:42;42.05;;;31.38;;
42146;SDS011;27815;43.410;11.852;2023-12-20T12:44:46;43.95;;;32.13;;
42146;SDS011;27815;43.410;11.852;2023-12-20T12:48:49;45.63;;;32.45;;
42146;SDS011;27815;43.410;11.852;2023-12-20T12:52:53;46.13;;;31.15;;
42146;SDS011;27815;43.410;11.852;2023-12-20T12:56:56;39.00;;;30.05;;
42146;SDS011;27815;43.410;11.852;2023-12-20T13:01:00;37.10;;;27.73;;
42146;SDS011;27815;43.410;11.852;2023-12-20T13:05:04;38.55;;;28.80;;
42146;SDS011;27815;43.410;11.852;2023-12-20T13:09:07;37.53;;;26.23;;
42146;SDS011;27815;43.410;11.852;2023-12-20T13:13:12;40.60;;;29.95;;
42146;SDS011;27815;43.410;11.852;2023-12-20T13:17:15;43.17;;;31.00;;
42146;SDS011;27815;43.410;11.852;2023-12-20T13:21:18;40.42;;;29.40;;
42146;SDS011;27815;43.410;11.852;2023-12-20T13:25:21;37.35;;;28.13;;
42146;SDS011;27815;43.410;11.852;2023-12-20T13:29:24;37.03;;;27.70;;
42146;SDS011;27815;43.410;11.852;2023-12-20T13:33:29;32.97;;;24.13;;
42146;SDS011;27815;43.410;11.852;2023-12-20T13:37:32;34.88;;;25.88;;
42146;SDS011;27815;43.410;11.852;2023-12-20T13:41:35;33.90;;;25.23;;
42146;SDS011;27815;43.410;11.852;2023-12-20T13:45:38;42.53;;;29.33;;
42146;SDS011;27815;43.410;11.852;2023-12-20T13:49:41;34.70;;;26.30;;
42146;SDS011;27815;43.410;11.852;2023-12-20T13:53:44;41.03;;;29.73;;
42146;SDS011;27815;43.410;11.852;2023-12-20T13:57:47;37.10;;;26.10;;
42146;SDS011;27815;43.410;11.852;2023-12-20T14:01:57;35.70;;;27.17;;
42146;SDS011;27815;43.410;11.852;2023-12-20T14:06:00;37.30;;;27.25;;
42146;SDS011;27815;43.410;11.852;2023-12-20T14:10:04;36.65;;;25.35;;
42146;SDS011;27815;43.410;11.852;2023-12-20T14:14:08;35.92;;;25.45;;
42146;SDS011;27815;43.410;11.852;2023-12-20T14:18:11;36.17;;;26.63;;
42146;SDS011;27815;43.410;11.852;2023-12-20T14:22:15;41.88;;;27.83;;
42146;SDS011;27815;43.410;11.852;2023-12-20T14:26:19;47.03;;;31.63;;
42146;SDS011;27815;43.410;11.852;2023-12-20T14:30:22;44.97;;;31.88;;
42146;SDS011;27815;43.410;11.852;2023-12-20T14:34:25;42.05;;;30.42;;
42146;SDS011;27815;43.410;11.852;2023-12-20T14:38:28;40.75;;;28.00;;
42146;SDS011;27815;43.410;11.852;2023-12-20T14:42:31;38.58;;;28.45;;
42146;SDS011;27815;43.410;11.852;2023-12-20T14:46:34;41.47;;;29.05;;
42146;SDS011;27815;43.410;11.852;2023-12-20T14:50:40;67.13;;;42.35;;
42146;SDS011;27815;43.410;11.852;2023-12-20T14:54:44;58.90;;;38.13;;
42146;SDS011;27815;43.410;11.852;2023-12-20T14:58:52;59.78;;;39.00;;
42146;SDS011;27815;43.410;11.852;2023-12-20T15:02:55;45.92;;;33.70;;
42146;SDS011;27815;43.410;11.852;2023-12-20T15:06:58;55.55;;;36.58;;
42146;SDS011;27815;43.410;11.852;2023-12-20T15:11:03;49.33;;;34.97;;
42146;SDS011;27815;43.410;11.852;2023-12-20T15:15:06;52.60;;;34.83;;
42146;SDS011;27815;43.410;11.852;2023-12-20T15:19:12;53.92;;;34.85;;
42146;SDS011;27815;43.410;11.852;2023-12-20T15:23:15;56.45;;;37.08;;
42146;SDS011;27815;43.410;11.852;2023-12-20T15:27:18;53.45;;;37.03;;
42146;SDS011;27815;43.410;11.852;2023-12-20T15:31:26;45.72;;;32.45;;
42146;SDS011;27815;43.410;11.852;2023-12-20T15:35:30;61.97;;;42.67;;
42146;SDS011;27815;43.410;11.852;2023-12-20T15:39:33;62.38;;;40.30;;
42146;SDS011;27815;43.410;11.852;2023-12-20T15:43:36;35.13;;;23.95;;
42146;SDS011;27815;43.410;11.852;2023-12-20T15:47:39;46.65;;;32.85;;
42146;SDS011;27815;43.410;11.852;2023-12-20T15:51:42;37.78;;;26.35;;
42146;SDS011;27815;43.410;11.852;2023-12-20T15:55:44;35.13;;;24.20;;
42146;SDS011;27815;43.410;11.852;2023-12-20T15:59:48;33.30;;;23.15;;
42146;SDS011;27815;43.410;11.852;2023-12-20T16:03:52;28.83;;;19.90;;
42146;SDS011;27815;43.410;11.852;2023-12-20T16:08:00;27.55;;;17.08;;
42146;SDS011;27815;43.410;11.852;2023-12-20T16:12:04;20.33;;;12.65;;
42146;SDS011;27815;43.410;11.852;2023-12-20T16:16:09;35.38;;;22.83;;
42146;SDS011;27815;43.410;11.852;2023-12-20T16:20:12;40.55;;;27.80;;
42146;SDS011;27815;43.410;11.852;2023-12-20T16:24:16;24.63;;;15.55;;
42146;SDS011;27815;43.410;11.852;2023-12-20T16:28:18;21.67;;;13.88;;
42146;SDS011;27815;43.410;11.852;2023-12-20T16:32:22;14.13;;;8.68;;
42146;SDS011;27815;43.410;11.852;2023-12-20T16:36:29;15.55;;;10.50;;
42146;SDS011;27815;43.410;11.852;2023-12-20T16:40:54;18.45;;;11.60;;
42146;SDS011;27815;43.410;11.852;2023-12-20T16:44:57;13.80;;;9.40;;
42146;SDS011;27815;43.410;11.852;2023-12-20T16:49:00;12.55;;;8.57;;
42146;SDS011;27815;43.410;11.852;2023-12-20T16:53:03;32.88;;;20.55;;
42146;SDS011;27815;43.410;11.852;2023-12-20T16:57:09;19.90;;;12.67;;
42146;SDS011;27815;43.410;11.852;2023-12-20T17:01:18;38.10;;;22.52;;
42146;SDS011;27815;43.410;11.852;2023-12-20T17:05:23;40.42;;;26.50;;
42146;SDS011;27815;43.410;11.852;2023-12-20T17:09:26;34.67;;;22.48;;
42146;SDS011;27815;43.410;11.852;2023-12-20T17:13:33;36.85;;;23.30;;
42146;SDS011;27815;43.410;11.852;2023-12-20T17:17:37;55.58;;;33.25;;
42146;SDS011;27815;43.410;11.852;2023-12-20T17:21:40;36.05;;;23.75;;
42146;SDS011;27815;43.410;11.852;2023-12-20T17:25:50;29.58;;;19.67;;
42146;SDS011;27815;43.410;11.852;2023-12-20T17:29:52;26.10;;;17.05;;
42146;SDS011;27815;43.410;11.852;2023-12-20T17:33:55;17.70;;;13.18;;
42146;SDS011;27815;43.410;11.852;2023-12-20T17:37:58;15.75;;;9.98;;
42146;SDS011;27815;43.410;11.852;2023-12-20T17:42:02;16.27;;;10.05;;
42146;SDS011;27815;43.410;11.852;2023-12-20T17:46:05;18.45;;;10.15;;
42146;SDS011;27815;43.410;11.852;2023-12-20T17:50:08;22.35;;;14.65;;
42146;SDS011;27815;43.410;11.852;2023-12-20T17:54:12;20.48;;;13.43;;
42146;SDS011;27815;43.410;11.852;2023-12-20T17:58:15;27.10;;;16.08;;
42146;SDS011;27815;43.410;11.852;2023-12-20T18:02:22;22.15;;;14.50;;
42146;SDS011;27815;43.410;11.852;2023-12-20T18:06:25;33.42;;;20.00;;
42146;SDS011;27815;43.410;11.852;2023-12-20T18:10:28;30.23;;;17.23;;
42146;SDS011;27815;43.410;11.852;2023-12-20T18:14:35;29.10;;;17.45;;
42146;SDS011;27815;43.410;11.852;2023-12-20T18:18:38;33.20;;;22.10;;
42146;SDS011;27815;43.410;11.852;2023-12-20T18:22:42;51.70;;;33.28;;
42146;SDS011;27815;43.410;11.852;2023-12-20T18:26:45;63.20;;;36.42;;
42146;SDS011;27815;43.410;11.852;2023-12-20T18:30:52;48.10;;;31.92;;
42146;SDS011;27815;43.410;11.852;2023-12-20T18:34:55;29.30;;;20.65;;
42146;SDS011;27815;43.410;11.852;2023-12-20T18:38:59;39.90;;;26.08;;
42146;SDS011;27815;43.410;11.852;2023-12-20T18:43:03;32.85;;;19.85;;
42146;SDS011;27815;43.410;11.852;2023-12-20T18:47:06;37.83;;;24.38;;
42146;SDS011;27815;43.410;11.852;2023-12-20T18:51:09;37.75;;;21.13;;
42146;SDS011;27815;43.410;11.852;2023-12-20T18:55:14;39.55;;;23.65;;
42146;SDS011;27815;43.410;11.852;2023-12-20T18:59:17;51.95;;;31.73;;
42146;SDS011;27815;43.410;11.852;2023-12-20T19:03:22;40.45;;;22.67;;
42146;SDS011;27815;43.410;11.852;2023-12-20T19:07:27;49.10;;;30.92;;
42146;SDS011;27815;43.410;11.852;2023-12-20T19:11:30;45.58;;;30.75;;
42146;SDS011;27815;43.410;11.852;2023-12-20T19:15:34;32.28;;;21.98;;
42146;SDS011;27815;43.410;11.852;2023-12-20T19:19:37;41.53;;;26.20;;
42146;SDS011;27815;43.410;11.852;2023-12-20T19:23:40;40.60;;;26.25;;
42146;SDS011;27815;43.410;11.852;2023-12-20T19:27:47;38.00;;;24.05;;
42146;SDS011;27815;43.410;11.852;2023-12-20T19:31:50;42.60;;;27.85;;
42146;SDS011;27815;43.410;11.852;2023-12-20T19:35:57;29.65;;;18.13;;
42146;SDS011;27815;43.410;11.852;2023-12-20T19:40:00;40.42;;;26.63;;
42146;SDS011;27815;43.410;11.852;2023-12-20T19:44:03;24.77;;;16.23;;
42146;SDS011;27815;43.410;11.852;2023-12-20T19:48:06;34.90;;;22.67;;
42146;SDS011;27815;43.410;11.852;2023-12-20T19:52:11;42.75;;;26.70;;
42146;SDS011;27815;43.410;11.852;2023-12-20T19:56:14;36.40;;;24.17;;
42146;SDS011;27815;43.410;11.852;2023-12-20T20:00:18;34.85;;;23.58;;
42146;SDS011;27815;43.410;11.852;2023-12-20T20:04:21;34.50;;;19.40;;
42146;SDS011;27815;43.410;11.852;2023-12-20T20:08:26;27.00;;;18.02;;
42146;SDS011;27815;43.410;11.852;2023-12-20T20:12:28;26.85;;;17.00;;
42146;SDS011;27815;43.410;11.852;2023-12-20T20:16:31;33.53;;;20.65;;
42146;SDS011;27815;43.410;11.852;2023-12-20T20:20:35;38.90;;;25.80;;
42146;SDS011;27815;43.410;11.852;2023-12-20T20:24:38;44.60;;;29.20;;
42146;SDS011;27815;43.410;11.852;2023-12-20T20:28:40;39.15;;;24.88;;
42146;SDS011;27815;43.410;11.852;2023-12-20T20:32:43;47.03;;;30.95;;
42146;SDS011;27815;43.410;11.852;2023-12-20T20:36:51;42.75;;;27.88;;
42146;SDS011;27815;43.410;11.852;2023-12-20T20:40:54;47.25;;;30.50;;
42146;SDS011;27815;43.410;11.852;2023-12-20T20:44:57;45.25;;;26.55;;
42146;SDS011;27815;43.410;11.852;2023-12-20T20:49:00;41.67;;;26.63;;
42146;SDS011;27815;43.410;11.852;2023-12-20T20:53:03;54.30;;;32.20;;
42146;SDS011;27815;43.410;11.852;2023-12-20T20:57:06;49.90;;;29.92;;
42146;SDS011;27815;43.410;11.852;2023-12-20T21:01:09;43.30;;;24.83;;
42146;SDS011;27815;43.410;11.852;2023-12-20T21:05:12;49.63;;;29.70;;
42146;SDS011;27815;43.410;11.852;2023-12-20T21:09:15;42.13;;;25.40;;
42146;SDS011;27815;43.410;11.852;2023-12-20T21:13:18;41.92;;;25.20;;
42146;SDS011;27815;43.410;11.852;2023-12-20T21:17:21;42.53;;;28.48;;
42146;SDS011;27815;43.410;11.852;2023-12-20T21:21:35;47.00;;;31.33;;
42146;SDS011;27815;43.410;11.852;2023-12-20T21:25:37;41.30;;;27.67;;
42146;SDS011;27815;43.410;11.852;2023-12-20T21:29:40;31.20;;;18.20;;
42146;SDS011;27815;43.410;11.852;2023-12-20T21:33:43;26.77;;;17.65;;
42146;SDS011;27815;43.410;11.852;2023-12-20T21:37:46;25.52;;;16.88;;
42146;SDS011;27815;43.410;11.852;2023-12-20T21:41:50;18.63;;;12.35;;
42146;SDS011;27815;43.410;11.852;2023-12-20T21:45:53;19.33;;;13.65;;
42146;SDS011;27815;43.410;11.852;2023-12-20T21:49:58;18.00;;;11.88;;
42146;SDS011;27815;43.410;11.852;2023-12-20T21:54:01;16.52;;;11.30;;
42146;SDS011;27815;43.410;11.852;2023-12-20T21:58:05;16.88;;;11.63;;
42146;SDS011;27815;43.410;11.852;2023-12-20T22:02:10;25.20;;;15.65;;
42146;SDS011;27815;43.410;11.852;2023-12-20T22:06:13;32.88;;;18.90;;
42146;SDS011;27815;43.410;11.852;2023-12-20T22:10:16;39.33;;;22.90;;
42146;SDS011;27815;43.410;11.852;2023-12-20T22:14:19;23.08;;;14.13;;
42146;SDS011;27815;43.410;11.852;2023-12-20T22:18:23;16.33;;;11.27;;
42146;SDS011;27815;43.410;11.852;2023-12-20T22:22:26;30.58;;;21.27;;
42146;SDS011;27815;43.410;11.852;2023-12-20T22:26:29;18.48;;;11.55;;
42146;SDS011;27815;43.410;11.852;2023-12-20T22:30:33;16.58;;;10.38;;
42146;SDS011;27815;43.410;11.852;2023-12-20T22:34:36;21.23;;;12.82;;
42146;SDS011;27815;43.410;11.852;2023-12-20T22:38:39;23.13;;;13.18;;
42146;SDS011;27815;43.410;11.852;2023-12-20T22:42:42;27.65;;;16.85;;
42146;SDS011;27815;43.410;11.852;2023-12-20T22:46:44;20.33;;;12.70;;
42146;SDS011;27815;43.410;11.852;2023-12-20T22:50:47;34.15;;;21.65;;
42146;SDS011;27815;43.410;11.852;2023-12-20T22:54:50;24.83;;;15.38;;
42146;SDS011;27815;43.410;11.852;2023-12-20T22:58:53;40.22;;;26.05;;
42146;SDS011;27815;43.410;11.852;2023-12-20T23:02:56;22.30;;;14.95;;
42146;SDS011;27815;43.410;11.852;2023-12-20T23:06:59;25.90;;;16.55;;
42146;SDS011;27815;43.410;11.852;2023-12-20T23:11:02;36.80;;;18.27;;
42146;SDS011;27815;43.410;11.852;2023-12-20T23:15:05;31.23;;;16.45;;
42146;SDS011;27815;43.410;11.852;2023-12-20T23:19:08;17.80;;;11.02;;
42146;SDS011;27815;43.410;11.852;2023-12-20T23:23:13;23.75;;;13.00;;
42146;SDS011;27815;43.410;11.852;2023-12-20T23:27:15;30.42;;;19.02;;